Time;durP1;ratioP1;P1;durP2;ratioP2;P2;SDS_P1;SDS_P2;PMS_P1;PMS_P2;Temp;Humidity;BMP_temperature;BMP_pressure;BME280_temperature;BME280_humidity;BME280_pressure;Samples;Min_cycle;Max_cycle;Signal;HPM_P1;HPM_P2
2023/08/16 00:00:57;;;;;;;11.20;6.40;;;;;;;23.57;51.68;100730.50;111073;1209;96375;-60
2023/08/16 00:03:22;;;;;;;13.40;6.00;;;;;;;23.54;51.81;100734.33;110970;1212;96248;-60
2023/08/16 00:05:47;;;;;;;11.30;6.30;;;;;;;23.49;51.82;100735.46;110919;1212;139739;-59
2023/08/16 00:08:12;;;;;;;11.30;6.30;;;;;;;23.45;51.73;100741.34;110849;1212;96288;-59
2023/08/16 00:10:38;;;;;;;15.50;6.00;;;;;;;23.42;52.00;100740.77;110890;1209;138204;-60
2023/08/16 00:13:03;;;;;;;11.30;6.10;;;;;;;23.38;52.25;100745.17;110955;1212;95940;-61
2023/08/16 00:15:29;;;;;;;11.00;6.50;;;;;;;23.33;52.23;100745.45;111018;1210;96256;-60
2023/08/16 00:17:54;;;;;;;16.00;6.30;;;;;;;23.28;52.28;100744.80;110977;1212;139067;-60
2023/08/16 00:20:20;;;;;;;10.20;5.90;;;;;;;23.25;52.43;100748.64;110883;1212;96964;-60
2023/08/16 00:22:46;;;;;;;8.50;5.70;;;;;;;23.22;52.67;100750.48;110673;1208;138466;-60
2023/08/16 00:25:11;;;;;;;8.00;5.80;;;;;;;23.20;52.61;100752.56;110935;1221;96354;-59
2023/08/16 00:27:38;;;;;;;8.80;6.30;;;;;;;23.17;52.62;100748.48;110896;1212;137755;-60
2023/08/16 00:30:04;;;;;;;11.20;6.50;;;;;;;23.15;52.74;100747.23;110870;1212;96266;-59
2023/08/16 00:32:30;;;;;;;8.00;5.30;;;;;;;23.11;52.74;100744.85;111087;1212;96423;-60
2023/08/16 00:34:55;;;;;;;9.90;5.90;;;;;;;23.10;52.87;100744.96;110893;1210;139229;-59
2023/08/16 00:37:20;;;;;;;13.70;5.80;;;;;;;23.06;52.81;100739.27;110886;1210;96295;-59
2023/08/16 00:39:45;;;;;;;7.00;5.80;;;;;;;23.03;53.28;100736.34;110817;1209;139400;-60
2023/08/16 00:42:11;;;;;;;13.90;6.30;;;;;;;22.99;53.09;100736.83;110876;1212;96666;-60
2023/08/16 00:44:36;;;;;;;7.40;6.20;;;;;;;22.97;53.16;100737.78;110976;1209;96431;-59
2023/08/16 00:47:02;;;;;;;9.50;5.90;;;;;;;22.94;53.31;100734.40;110802;1209;139048;-60
2023/08/16 00:49:28;;;;;;;10.40;5.50;;;;;;;22.92;53.48;100734.23;111148;1211;96267;-59
2023/08/16 00:51:53;;;;;;;13.30;6.20;;;;;;;22.90;53.66;100730.01;110860;1212;139301;-59
2023/08/16 00:54:19;;;;;;;9.70;6.60;;;;;;;22.89;53.47;100727.00;110884;1212;96722;-60
2023/08/16 00:56:44;;;;;;;13.70;5.60;;;;;;;22.87;53.71;100725.98;110879;1208;96340;-60
2023/08/16 00:59:10;;;;;;;12.20;6.50;;;;;;;22.85;53.81;100730.86;110919;1212;140200;-59
2023/08/16 01:01:36;;;;;;;13.40;5.90;;;;;;;22.83;53.77;100733.27;110911;1212;96355;-60
2023/08/16 01:04:01;;;;;;;9.50;6.30;;;;;;;22.79;54.06;100747.80;110846;1222;138517;-59
2023/08/16 01:06:27;;;;;;;11.80;6.00;;;;;;;22.76;53.98;100756.66;110938;1209;96312;-59
2023/08/16 01:08:53;;;;;;;12.80;6.00;;;;;;;22.76;54.27;100751.57;110927;1209;96259;-60
2023/08/16 01:11:43;;;;;;;10.60;6.00;;;;;;;22.76;54.27;100759.94;110804;1212;139432;-59
2023/08/16 01:14:28;;;;;;;8.30;6.10;;;;;;;22.70;54.42;100764.88;110897;1209;96324;-59
2023/08/16 01:16:54;;;;;;;10.30;5.90;;;;;;;22.64;54.31;100750.09;110838;1212;138190;-59
2023/08/16 01:19:28;;;;;;;10.80;6.10;;;;;;;22.61;54.57;100758.77;110835;1209;96387;-59
2023/08/16 01:22:16;;;;;;;11.60;6.40;;;;;;;22.58;54.87;100765.98;110860;1212;140490;-59
2023/08/16 01:24:56;;;;;;;8.00;5.90;;;;;;;22.53;54.97;100757.16;110916;1212;101595;-59
2023/08/16 01:27:22;;;;;;;9.40;5.50;;;;;;;22.49;54.99;100750.08;110921;1212;96385;-59
2023/08/16 01:29:49;;;;;;;8.60;6.00;;;;;;;22.47;55.04;100748.38;110863;1219;139894;-59
2023/08/16 01:32:15;;;;;;;12.30;6.70;;;;;;;22.48;55.25;100748.70;111002;1212;96273;-59
2023/08/16 01:34:41;;;;;;;11.20;6.80;;;;;;;22.48;55.42;100755.02;110868;1209;138449;-59
2023/08/16 01:37:06;;;;;;;7.50;5.40;;;;;;;22.49;55.40;100741.08;110930;1212;96253;-59
2023/08/16 01:39:31;;;;;;;9.40;6.40;;;;;;;22.48;55.42;100748.45;110871;1222;138487;-59
2023/08/16 01:42:00;;;;;;;9.70;6.20;;;;;;;22.46;55.45;100747.98;111048;1212;96271;-59
2023/08/16 01:44:27;;;;;;;13.90;7.00;;;;;;;22.42;55.52;100747.94;110890;1212;101743;-58
2023/08/16 01:46:53;;;;;;;9.00;6.30;;;;;;;22.37;55.64;100746.74;110810;1212;139703;-59
2023/08/16 01:49:20;;;;;;;11.20;6.30;;;;;;;22.33;55.77;100744.20;110978;1212;96499;-59
2023/08/16 01:51:46;;;;;;;10.10;6.00;;;;;;;22.27;55.83;100743.67;110880;1212;139609;-59
2023/08/16 01:54:12;;;;;;;10.70;6.60;;;;;;;22.19;55.97;100742.36;110906;1212;96218;-59
2023/08/16 01:56:37;;;;;;;8.10;5.90;;;;;;;22.15;56.19;100742.63;110937;1210;96307;-59
2023/08/16 01:59:02;;;;;;;13.80;6.70;;;;;;;22.10;56.42;100746.72;110884;1212;138222;-59
2023/08/16 02:01:27;;;;;;;8.50;5.90;;;;;;;22.06;56.62;100740.66;110911;1222;96250;-58
2023/08/16 02:03:53;;;;;;;13.60;7.30;;;;;;;22.02;56.61;100744.45;110814;1212;138279;-59
2023/08/16 02:06:19;;;;;;;12.10;6.10;;;;;;;21.99;56.72;100746.49;110971;1212;96287;-59
2023/08/16 02:08:44;;;;;;;10.20;6.30;;;;;;;21.95;56.75;100748.02;110896;1209;96227;-59
2023/08/16 02:11:10;;;;;;;15.80;5.80;;;;;;;21.91;57.01;100754.51;110751;1212;140466;-59
2023/08/16 02:13:35;;;;;;;14.70;6.40;;;;;;;21.89;57.26;100748.86;111000;1208;96412;-59
2023/08/16 02:16:01;;;;;;;8.40;6.00;;;;;;;21.87;57.37;100751.12;110819;1209;140231;-59
2023/08/16 02:18:31;;;;;;;9.50;6.40;;;;;;;21.84;57.54;100752.23;111072;1210;96194;-59
2023/08/16 02:20:57;;;;;;;7.60;6.50;;;;;;;21.82;57.79;100755.15;110856;1212;102172;-59
2023/08/16 02:23:22;;;;;;;17.30;6.90;;;;;;;21.81;57.99;100752.67;110843;1212;139062;-59
2023/08/16 02:25:48;;;;;;;7.80;6.20;;;;;;;21.79;57.91;100743.30;110928;1212;96318;-59
2023/08/16 02:28:13;;;;;;;9.20;6.40;;;;;;;21.74;58.13;100739.14;110844;1208;139119;-59
2023/08/16 02:30:38;;;;;;;15.10;6.70;;;;;;;21.68;58.12;100739.45;110923;1222;96405;-59
2023/08/16 02:33:04;;;;;;;16.80;6.90;;;;;;;21.64;58.39;100739.28;111007;1208;96381;-59
2023/08/16 02:35:29;;;;;;;11.30;6.60;;;;;;;21.61;58.50;100737.92;110779;1209;139441;-59
2023/08/16 02:37:54;;;;;;;7.60;6.00;;;;;;;21.58;58.61;100735.64;110989;1212;96267;-59
2023/08/16 02:40:20;;;;;;;10.20;6.20;;;;;;;21.54;58.64;100734.17;110823;1221;138593;-59
2023/08/16 02:42:46;;;;;;;10.50;6.30;;;;;;;21.49;58.82;100735.59;110942;1222;96371;-59
2023/08/16 02:45:12;;;;;;;10.30;6.60;;;;;;;21.42;59.03;100734.70;110958;1222;96269;-59
2023/08/16 02:47:37;;;;;;;9.90;6.50;;;;;;;21.36;59.04;100736.70;110861;1212;139323;-59
2023/08/16 02:50:02;;;;;;;10.80;6.80;;;;;;;21.31;59.24;100732.70;110974;1212;95148;-59
2023/08/16 02:52:28;;;;;;;7.50;6.40;;;;;;;21.28;59.42;100733.05;110778;1210;140176;-59
2023/08/16 02:54:53;;;;;;;9.20;6.20;;;;;;;21.25;59.56;100733.44;110933;1210;96408;-59
2023/08/16 02:57:19;;;;;;;12.00;6.30;;;;;;;21.24;59.68;100732.11;110997;1212;96326;-59
2023/08/16 02:59:46;;;;;;;11.90;7.10;;;;;;;21.22;59.83;100728.23;110760;1212;139162;-59
2023/08/16 03:02:15;;;;;;;11.60;7.40;;;;;;;21.19;59.87;100726.85;110868;1216;96341;-59
2023/08/16 03:04:40;;;;;;;16.00;7.30;;;;;;;21.16;59.98;100728.23;110786;1221;138809;-59
2023/08/16 03:07:06;;;;;;;10.70;6.50;;;;;;;21.11;60.07;100725.20;110981;1212;96283;-59
2023/08/16 03:09:32;;;;;;;13.60;7.10;;;;;;;21.05;60.24;100724.94;110812;1209;139307;-58
2023/08/16 03:11:57;;;;;;;12.90;6.90;;;;;;;20.97;60.27;100728.23;110935;1212;96271;-59
2023/08/16 03:14:23;;;;;;;17.20;7.10;;;;;;;20.92;60.70;100734.77;110920;1209;96439;-59
2023/08/16 03:16:48;;;;;;;8.70;6.60;;;;;;;20.93;60.78;100737.04;110920;1219;140531;-59
2023/08/16 03:19:14;;;;;;;10.30;7.10;;;;;;;20.95;60.86;100745.60;110926;1212;96305;-59
2023/08/16 03:21:39;;;;;;;11.50;7.20;;;;;;;20.97;61.00;100752.92;110932;1212;139261;-60
2023/08/16 03:24:05;;;;;;;14.90;7.50;;;;;;;20.97;61.03;100754.94;110954;1212;101639;-59
2023/08/16 03:26:30;;;;;;;12.60;6.90;;;;;;;20.95;61.15;100754.70;110912;1212;96368;-59
2023/08/16 03:28:55;;;;;;;15.60;7.60;;;;;;;20.95;61.28;100752.52;110889;1212;138426;-59
2023/08/16 03:31:21;;;;;;;11.90;7.50;;;;;;;20.96;61.39;100756.30;110875;1209;96385;-59
2023/08/16 03:33:46;;;;;;;12.70;8.30;;;;;;;20.95;61.32;100757.62;110886;1212;140293;-59
2023/08/16 03:36:11;;;;;;;11.60;7.10;;;;;;;20.93;61.48;100766.29;110859;1212;96353;-59
2023/08/16 03:38:36;;;;;;;13.50;7.90;;;;;;;20.93;61.56;100760.72;110896;1209;96410;-59
2023/08/16 03:41:02;;;;;;;9.40;7.20;;;;;;;20.93;61.63;100758.34;110910;1216;139038;-58
2023/08/16 03:43:29;;;;;;;10.30;7.80;;;;;;;20.93;61.71;100760.88;110923;1209;96765;-59
2023/08/16 03:45:54;;;;;;;8.80;7.30;;;;;;;20.90;61.88;100765.52;110753;1212;138600;-59
2023/08/16 03:48:20;;;;;;;11.40;7.70;;;;;;;20.89;61.87;100765.08;111092;1209;96712;-59
2023/08/16 03:50:45;;;;;;;15.50;8.00;;;;;;;20.86;61.93;100765.14;110966;1212;96798;-59
2023/08/16 03:53:11;;;;;;;12.30;8.40;;;;;;;20.82;61.96;100771.61;110790;1212;139104;-59
2023/08/16 03:55:36;;;;;;;9.30;8.00;;;;;;;20.81;62.16;100773.38;110910;1212;96296;-59
2023/08/16 03:58:02;;;;;;;10.80;8.50;;;;;;;20.79;62.22;100773.91;110809;1208;138664;-59
2023/08/16 04:00:27;;;;;;;22.80;8.60;;;;;;;20.75;62.31;100775.92;110910;1213;97191;-59
2023/08/16 04:02:52;;;;;;;13.10;7.90;;;;;;;20.74;62.39;100775.44;110937;1209;96344;-59
2023/08/16 04:05:21;;;;;;;11.90;8.10;;;;;;;20.73;62.46;100777.89;110855;1209;138695;-59
2023/08/16 04:07:46;;;;;;;10.40;7.50;;;;;;;20.71;62.57;100780.05;110904;1212;101361;-58
2023/08/16 04:10:11;;;;;;;13.70;8.00;;;;;;;20.68;62.68;100781.94;110778;1208;140010;-59
2023/08/16 04:12:37;;;;;;;11.60;8.20;;;;;;;20.68;62.89;100779.96;110955;1212;96359;-59
2023/08/16 04:15:03;;;;;;;10.50;8.30;;;;;;;20.68;62.90;100782.84;110997;1212;96237;-59
2023/08/16 04:17:29;;;;;;;12.70;7.70;;;;;;;20.67;63.05;100783.98;110812;1208;138850;-59
2023/08/16 04:19:54;;;;;;;14.70;8.30;;;;;;;20.65;63.08;100787.41;111038;1212;96450;-59
2023/08/16 04:22:20;;;;;;;13.30;7.30;;;;;;;20.65;63.27;100785.63;110871;1221;139012;-59
2023/08/16 04:24:46;;;;;;;15.50;9.40;;;;;;;20.65;63.42;100788.50;111035;1211;96239;-59
2023/08/16 04:27:11;;;;;;;12.70;8.90;;;;;;;20.67;63.32;100799.45;110746;1212;96429;-59
2023/08/16 04:29:36;;;;;;;14.90;8.50;;;;;;;20.63;63.49;100802.32;110829;1210;138383;-59
2023/08/16 04:32:02;;;;;;;17.10;8.90;;;;;;;20.62;63.59;100805.15;110938;1209;96260;-59
2023/08/16 04:34:27;;;;;;;16.00;8.60;;;;;;;20.63;63.70;100808.49;110767;1212;139339;-59
2023/08/16 04:36:52;;;;;;;13.60;9.00;;;;;;;20.61;63.76;100804.98;110985;1212;96273;-59
2023/08/16 04:39:18;;;;;;;12.00;8.80;;;;;;;20.58;64.04;100807.79;110898;1212;96415;-59
2023/08/16 04:41:44;;;;;;;13.70;11.00;;;;;;;20.60;64.19;100805.70;110764;1212;138379;-59
2023/08/16 04:44:09;;;;;;;19.00;11.50;;;;;;;20.62;64.19;100815.66;110903;1224;97192;-59
2023/08/16 04:46:34;;;;;;;21.40;11.60;;;;;;;20.62;64.22;100816.88;110825;1213;138607;-59
2023/08/16 04:49:00;;;;;;;17.10;10.70;;;;;;;20.61;64.42;100815.33;111022;1212;109985;-59
2023/08/16 04:51:25;;;;;;;15.60;10.00;;;;;;;20.61;64.40;100813.57;110887;1209;106511;-59
2023/08/16 04:53:50;;;;;;;13.20;9.70;;;;;;;20.60;64.55;100812.13;110830;1222;139361;-59
2023/08/16 04:56:16;;;;;;;13.50;8.90;;;;;;;20.63;64.68;100815.55;110821;1209;96251;-58
2023/08/16 04:58:41;;;;;;;15.90;10.70;;;;;;;20.69;64.69;100813.60;110859;1212;138984;-59
2023/08/16 05:01:06;;;;;;;17.70;11.90;;;;;;;20.71;64.55;100817.61;110945;1209;97969;-59
2023/08/16 05:03:32;;;;;;;18.20;12.40;;;;;;;20.73;64.78;100820.33;110851;1210;139348;-58
2023/08/16 05:06:03;;;;;;;13.30;11.20;;;;;;;20.78;64.89;100823.27;110908;1208;97646;-59
2023/08/16 05:08:28;;;;;;;22.00;12.00;;;;;;;20.80;64.86;100825.58;110879;1212;96254;-59
2023/08/16 05:10:55;;;;;;;16.00;10.10;;;;;;;20.81;64.94;100819.48;110733;1212;139162;-62
2023/08/16 05:13:21;;;;;;;17.60;10.40;;;;;;;20.84;65.02;100825.27;110807;1212;96388;-63
2023/08/16 05:15:46;;;;;;;14.30;9.90;;;;;;;20.86;65.09;100826.16;110723;1208;139297;-62
2023/08/16 05:18:14;;;;;;;21.90;10.50;;;;;;;20.87;65.16;100826.61;110835;1212;96434;-63
2023/08/16 05:20:39;;;;;;;13.00;9.80;;;;;;;20.87;65.08;100821.21;110812;1209;96319;-63
2023/08/16 05:23:05;;;;;;;18.00;10.40;;;;;;;20.84;65.08;100827.55;110681;1212;138368;-62
2023/08/16 05:25:30;;;;;;;17.70;9.20;;;;;;;20.86;65.09;100827.95;110914;1212;97008;-63
2023/08/16 05:27:58;;;;;;;33.20;10.70;;;;;;;20.91;65.33;100827.24;110757;1208;139193;-63
2023/08/16 05:30:28;;;;;;;20.20;10.50;;;;;;;20.94;65.26;100832.21;111144;1211;97660;-62
2023/08/16 05:32:56;;;;;;;18.00;10.40;;;;;;;20.98;65.25;100832.73;110972;1212;95138;-63
2023/08/16 05:35:22;;;;;;;20.60;11.20;;;;;;;21.04;65.30;100835.73;110918;1208;139053;-62
2023/08/16 05:37:50;;;;;;;20.50;10.20;;;;;;;21.08;65.34;100841.16;110794;1209;97353;-62
2023/08/16 05:40:16;;;;;;;23.80;11.30;;;;;;;21.14;65.33;100842.88;110778;1209;138718;-62
2023/08/16 05:42:41;;;;;;;46.20;14.30;;;;;;;21.19;65.44;100840.80;110688;1212;96238;-63
2023/08/16 05:45:07;;;;;;;31.30;11.70;;;;;;;21.22;65.46;100842.92;110872;1212;96312;-63
2023/08/16 05:47:33;;;;;;;19.50;10.60;;;;;;;21.26;65.70;100836.98;110860;1209;139089;-62
2023/08/16 05:49:59;;;;;;;22.40;11.90;;;;;;;21.28;65.87;100835.17;110932;1208;96334;-62
2023/08/16 05:52:24;;;;;;;23.00;12.70;;;;;;;21.28;65.79;100838.61;110612;1221;140834;-62
2023/08/16 05:54:50;;;;;;;21.60;11.30;;;;;;;21.30;65.99;100838.29;110875;1219;96230;-62
2023/08/16 05:57:15;;;;;;;19.50;10.90;;;;;;;21.34;65.90;100829.60;110895;1208;96248;-62
2023/08/16 05:59:41;;;;;;;16.70;10.20;;;;;;;21.38;66.23;100825.52;110796;1212;138550;-62
2023/08/16 06:02:09;;;;;;;29.20;11.20;;;;;;;21.46;66.12;100822.92;110888;1208;99121;-62
2023/08/16 06:04:34;;;;;;;18.00;10.70;;;;;;;21.54;66.36;100831.25;110699;1212;138557;-63
2023/08/16 06:07:01;;;;;;;18.00;11.00;;;;;;;21.59;66.35;100832.29;110832;1212;96338;-63
2023/08/16 06:09:26;;;;;;;12.60;10.60;;;;;;;21.60;66.56;100834.16;110899;1211;96494;-63
2023/08/16 06:11:52;;;;;;;15.30;11.40;;;;;;;21.60;66.93;100839.50;110716;1212;139425;-63
2023/08/16 06:14:17;;;;;;;22.40;10.50;;;;;;;21.61;67.03;100841.90;110823;1210;96267;-63
2023/08/16 06:16:43;;;;;;;11.90;9.60;;;;;;;21.65;67.01;100841.61;110759;1209;139357;-62
2023/08/16 06:19:09;;;;;;;20.80;11.60;;;;;;;21.68;67.21;100842.98;110807;1208;96337;-61
2023/08/16 06:21:34;;;;;;;14.50;11.60;;;;;;;21.71;67.35;100848.56;110826;1208;139714;-61
2023/08/16 06:23:59;;;;;;;17.90;10.90;;;;;;;21.77;67.61;100850.91;110953;1209;96273;-61
2023/08/16 06:26:25;;;;;;;16.80;12.00;;;;;;;21.87;67.66;100855.91;110865;1212;97715;-61
2023/08/16 06:28:51;;;;;;;14.50;11.10;;;;;;;21.94;67.76;100856.16;110782;1212;139798;-61
2023/08/16 06:31:17;;;;;;;18.60;11.70;;;;;;;21.98;68.12;100857.02;110795;1212;96535;-61
2023/08/16 06:33:43;;;;;;;15.00;11.30;;;;;;;22.03;68.21;100862.09;110740;1209;139624;-61
2023/08/16 06:36:09;;;;;;;16.20;11.90;;;;;;;22.11;68.43;100871.27;110957;1212;96301;-62
2023/08/16 06:38:34;;;;;;;19.10;12.50;;;;;;;22.19;68.54;100879.10;110983;1208;99108;-62
2023/08/16 06:40:59;;;;;;;14.20;11.00;;;;;;;22.25;68.48;100886.43;110869;1208;138787;-62
2023/08/16 06:43:25;;;;;;;16.50;11.10;;;;;;;22.30;68.49;100890.86;110852;1212;96276;-62
2023/08/16 06:45:50;;;;;;;12.40;10.80;;;;;;;22.32;68.65;100888.80;110782;1209;139876;-62
2023/08/16 06:48:15;;;;;;;16.20;11.10;;;;;;;22.36;68.68;100883.22;110938;1208;96779;-61
2023/08/16 06:50:40;;;;;;;26.50;11.50;;;;;;;22.40;68.62;100884.33;110960;1210;96237;-62
2023/08/16 06:53:06;;;;;;;13.40;10.80;;;;;;;22.48;68.94;100887.29;110915;1212;141230;-61
2023/08/16 06:55:31;;;;;;;18.00;12.40;;;;;;;22.57;68.84;100893.23;110947;1212;102014;-61
2023/08/16 06:57:56;;;;;;;20.90;10.90;;;;;;;22.63;68.96;100895.36;110690;1214;139868;-61
2023/08/16 07:00:21;;;;;;;21.20;10.90;;;;;;;22.69;68.83;100891.20;110760;1209;96313;-61
2023/08/16 07:02:48;;;;;;;17.50;11.00;;;;;;;22.75;69.20;100893.58;110842;1209;96319;-61
2023/08/16 07:05:13;;;;;;;16.40;10.30;;;;;;;22.81;69.10;100891.18;110519;1208;140844;-62
2023/08/16 07:07:39;;;;;;;14.50;10.30;;;;;;;22.91;69.07;100897.06;110811;1209;96222;-63
2023/08/16 07:10:06;;;;;;;16.80;10.50;;;;;;;22.98;69.34;100901.69;110839;1211;139271;-61
2023/08/16 07:12:31;;;;;;;15.50;11.40;;;;;;;23.06;69.37;100903.17;111000;1209;96288;-62
2023/08/16 07:14:56;;;;;;;17.40;9.80;;;;;;;23.13;69.27;100903.96;110733;1212;98254;-61
2023/08/16 07:17:22;;;;;;;17.00;9.50;;;;;;;23.19;69.41;100901.81;110644;1208;138460;-61
2023/08/16 07:19:48;;;;;;;19.10;10.20;;;;;;;23.24;69.37;100908.54;110805;1212;96267;-60
2023/08/16 07:22:14;;;;;;;14.10;9.20;;;;;;;23.32;69.27;100913.09;110637;1208;138749;-60
2023/08/16 07:24:40;;;;;;;15.80;10.80;;;;;;;23.37;69.29;100916.67;111102;1212;96307;-62
2023/08/16 07:27:05;;;;;;;18.20;10.20;;;;;;;23.41;69.37;100916.52;110713;1209;97914;-61
2023/08/16 07:29:30;;;;;;;14.00;8.90;;;;;;;23.45;69.49;100917.19;110582;1212;138636;-61
2023/08/16 07:31:56;;;;;;;13.80;9.20;;;;;;;23.51;69.74;100916.08;110648;1211;97677;-61
2023/08/16 07:34:21;;;;;;;12.10;9.30;;;;;;;23.57;69.63;100923.20;110611;1209;140181;-61
2023/08/16 07:36:47;;;;;;;34.90;10.10;;;;;;;23.63;70.01;100921.18;110824;1212;102379;-62
2023/08/16 07:39:12;;;;;;;10.60;9.30;;;;;;;23.68;70.09;100927.11;110753;1212;96353;-61
2023/08/16 07:41:37;;;;;;;13.00;8.80;;;;;;;23.73;70.21;100928.79;110691;1211;140503;-61
2023/08/16 07:44:03;;;;;;;11.80;7.60;;;;;;;23.76;70.33;100931.61;110842;1212;96242;-61
2023/08/16 07:46:28;;;;;;;12.90;8.90;;;;;;;23.76;70.30;100936.89;110805;1212;139923;-62
2023/08/16 07:48:53;;;;;;;8.90;8.00;;;;;;;23.76;70.32;100931.23;110896;1208;96692;-62
2023/08/16 07:51:19;;;;;;;14.10;8.00;;;;;;;23.81;70.32;100929.71;110793;1212;97593;-62
2023/08/16 07:53:44;;;;;;;14.30;8.40;;;;;;;23.85;70.56;100933.36;110720;1211;139025;-61
2023/08/16 07:56:09;;;;;;;10.40;8.00;;;;;;;23.90;70.59;100938.46;110850;1208;97806;-62
2023/08/16 07:58:34;;;;;;;10.40;7.50;;;;;;;23.94;70.41;100938.84;110785;1209;139183;-62
2023/08/16 08:01:00;;;;;;;8.20;7.00;;;;;;;23.95;70.52;100942.18;110929;1208;97514;-62
2023/08/16 08:03:25;;;;;;;12.20;7.80;;;;;;;23.96;70.55;100945.06;110916;1208;96517;-61
2023/08/16 08:05:51;;;;;;;12.80;7.60;;;;;;;23.99;70.76;100945.87;110746;1212;138341;-62
2023/08/16 08:08:16;;;;;;;16.20;8.90;;;;;;;24.10;70.41;100949.02;110721;1212;96777;-61
2023/08/16 08:10:45;;;;;;;13.00;8.30;;;;;;;24.17;70.30;100944.63;110821;1214;140195;-62
2023/08/16 08:13:11;;;;;;;16.50;7.30;;;;;;;24.20;70.26;100946.56;110816;1213;97775;-61
2023/08/16 08:15:36;;;;;;;8.60;7.50;;;;;;;24.30;70.21;100952.25;110796;1208;139139;-61
2023/08/16 08:18:02;;;;;;;14.50;7.90;;;;;;;24.38;70.08;100953.30;110940;1212;97687;-61
2023/08/16 08:20:27;;;;;;;9.40;7.90;;;;;;;24.45;70.09;100957.93;110849;1209;102823;-61
2023/08/16 08:22:53;;;;;;;10.90;7.40;;;;;;;24.50;70.24;100955.38;110822;1209;138674;-62
2023/08/16 08:25:18;;;;;;;7.90;6.90;;;;;;;24.54;70.04;100957.76;110867;1208;97588;-61
2023/08/16 08:27:43;;;;;;;8.90;7.10;;;;;;;24.57;69.97;100961.41;110756;1220;140202;-61
2023/08/16 08:30:09;;;;;;;9.60;6.60;;;;;;;24.63;70.10;100961.98;110688;1212;97988;-61
2023/08/16 08:32:34;;;;;;;10.20;6.40;;;;;;;24.74;70.15;100965.86;110789;1212;99858;-62
2023/08/16 08:35:00;;;;;;;12.20;7.10;;;;;;;24.85;69.97;100972.25;110505;1224;138959;-61
2023/08/16 08:37:25;;;;;;;7.10;6.40;;;;;;;24.90;69.82;100969.48;110656;1212;97752;-62
2023/08/16 08:39:50;;;;;;;10.70;6.80;;;;;;;24.95;69.87;100972.39;110562;1208;139615;-61
2023/08/16 08:42:32;;;;;;;8.00;6.40;;;;;;;25.04;69.71;100970.64;110697;1208;638392;-61
2023/08/16 08:44:59;;;;;;;8.70;6.20;;;;;;;25.04;69.72;100971.53;110852;1206;95148;-60
2023/08/16 08:47:24;;;;;;;9.60;6.00;;;;;;;25.12;69.60;100968.52;110694;1208;138280;-60
2023/08/16 08:49:51;;;;;;;7.10;6.40;;;;;;;25.21;69.64;100974.67;110756;1211;96739;-60
2023/08/16 08:52:17;;;;;;;9.00;6.40;;;;;;;25.27;69.50;100971.95;110607;1211;137499;-60
2023/08/16 08:54:43;;;;;;;11.00;6.40;;;;;;;25.36;69.46;100971.36;110820;1207;95744;-60
2023/08/16 08:57:11;;;;;;;11.10;6.40;;;;;;;25.50;69.50;100977.09;110896;1211;94737;-60
2023/08/16 08:59:41;;;;;;;7.20;5.90;;;;;;;25.62;69.30;100977.40;110954;1209;138767;-61
2023/08/16 09:02:07;;;;;;;;;;;;;;;25.69;69.17;100978.19;111022;1211;107888;-60
2023/08/16 09:04:33;;;;;;;8.60;7.00;;;;;;;25.74;69.04;100981.85;110718;1211;126091;-61
2023/08/16 09:07:04;;;;;;;9.10;7.40;;;;;;;25.80;68.75;100982.48;110743;1209;95358;-60
2023/08/16 09:09:30;;;;;;;17.30;7.40;;;;;;;25.84;68.73;100981.91;110973;1211;95014;-60
2023/08/16 09:11:55;;;;;;;9.40;6.20;;;;;;;25.95;68.63;100988.48;110772;1210;139488;-61
2023/08/16 09:14:21;;;;;;;9.90;7.40;;;;;;;26.08;68.62;100991.86;110730;1212;94909;-61
2023/08/16 09:16:46;;;;;;;10.40;6.90;;;;;;;26.19;68.24;100998.92;110707;1211;138205;-61
2023/08/16 09:19:15;;;;;;;7.60;6.80;;;;;;;26.20;68.15;100996.46;110868;1211;95428;-61
2023/08/16 09:21:43;;;;;;;8.70;6.90;;;;;;;26.22;67.99;100994.41;110674;1222;139217;-62
2023/08/16 09:24:09;;;;;;;9.20;6.70;;;;;;;26.28;67.92;100993.63;110753;1211;94913;-62
2023/08/16 09:26:37;;;;;;;10.70;7.10;;;;;;;26.34;67.76;100994.64;110813;1212;95678;-62
2023/08/16 09:29:03;;;;;;;12.70;7.00;;;;;;;26.43;67.73;100991.11;110781;1211;138037;-61
2023/08/16 09:31:30;;;;;;;12.10;6.80;;;;;;;26.55;67.67;100989.75;110794;1211;97029;-61
2023/08/16 09:33:56;;;;;;;8.00;6.20;;;;;;;26.62;67.40;100985.52;110916;1209;139559;-62
2023/08/16 09:36:21;;;;;;;9.70;6.80;;;;;;;26.68;67.30;100986.30;110653;1211;100474;-64
2023/08/16 09:38:47;;;;;;;9.50;6.90;;;;;;;26.76;67.10;100988.75;110741;1210;96190;-64
2023/08/16 09:41:18;;;;;;;10.30;6.90;;;;;;;26.79;66.93;100990.63;110753;1209;138069;-63
2023/08/16 09:43:44;;;;;;;10.30;6.40;;;;;;;26.83;66.78;100991.78;110709;1211;96483;-63
2023/08/16 09:46:09;;;;;;;8.90;7.10;;;;;;;26.86;66.37;100987.89;110664;1211;138112;-63
2023/08/16 09:48:35;;;;;;;6.90;6.00;;;;;;;26.92;66.57;100989.29;111170;1211;95056;-62
2023/08/16 09:51:03;;;;;;;6.90;5.80;;;;;;;27.00;66.21;100994.06;110832;1208;94972;-63
2023/08/16 09:53:30;;;;;;;8.20;6.20;;;;;;;27.02;65.90;100988.77;110695;1211;138207;-63
2023/08/16 09:55:55;;;;;;;14.70;6.60;;;;;;;27.06;65.68;100990.63;110776;1208;95893;-62
2023/08/16 09:58:21;;;;;;;11.40;6.30;;;;;;;27.16;65.65;100990.13;110646;1211;139687;-62
2023/08/16 10:00:48;;;;;;;9.00;6.50;;;;;;;27.27;65.61;100993.71;110700;1211;95364;-63
2023/08/16 10:03:14;;;;;;;13.30;6.60;;;;;;;27.35;65.23;100997.80;110755;1211;96063;-64
2023/08/16 10:05:41;;;;;;;9.30;5.80;;;;;;;27.38;65.20;100994.17;110602;1208;138745;-63
2023/08/16 10:08:09;;;;;;;9.30;6.70;;;;;;;27.43;64.81;100992.36;111065;1211;95955;-63
2023/08/16 10:10:35;;;;;;;9.80;6.30;;;;;;;27.46;64.68;100988.99;110612;1212;138840;-62
2023/08/16 10:13:01;;;;;;;22.80;6.80;;;;;;;27.56;64.64;100992.78;111189;1208;96293;-63
2023/08/16 10:15:33;;;;;;;12.70;6.50;;;;;;;27.64;64.23;100993.21;111056;1208;95019;-63
2023/08/16 10:18:00;;;;;;;8.70;6.00;;;;;;;27.65;64.08;100991.27;110778;1211;99463;-62
2023/08/16 10:20:27;;;;;;;11.60;5.70;;;;;;;27.66;64.08;100986.71;111010;1208;95224;-63
2023/08/16 10:22:58;;;;;;;10.40;6.00;;;;;;;27.74;64.02;100989.27;110663;1209;137668;-63
2023/08/16 10:25:27;;;;;;;9.70;6.30;;;;;;;27.86;63.65;100985.63;110729;1211;101848;-63
2023/08/16 10:28:02;;;;;;;9.40;5.80;;;;;;;27.86;63.47;100984.50;112989;1208;138867;-63
2023/08/16 10:30:31;;;;;;;7.20;5.90;;;;;;;27.88;63.36;100987.16;113045;1207;98762;-62
2023/08/16 10:33:21;;;;;;;13.90;5.60;;;;;;;28.01;63.24;100986.83;113143;1208;92902;-62
2023/08/16 10:35:50;;;;;;;10.40;5.50;;;;;;;28.20;62.96;100987.33;112833;1208;138278;-61
2023/08/16 10:38:16;;;;;;;9.80;5.60;;;;;;;28.30;62.58;100988.75;113021;1208;100309;-61
2023/08/16 10:40:41;;;;;;;10.50;5.60;;;;;;;28.29;62.47;100990.92;110957;1208;138508;-62
2023/08/16 10:43:08;;;;;;;9.40;5.60;;;;;;;28.35;62.26;100989.85;110639;1211;94977;-62
2023/08/16 10:45:34;;;;;;;8.60;5.80;;;;;;;28.45;62.05;100988.02;110584;1209;138464;-62
2023/08/16 10:48:11;;;;;;;7.70;5.50;;;;;;;28.55;61.78;100988.25;110731;1211;96168;-62
2023/08/16 10:50:37;;;;;;;11.50;5.30;;;;;;;28.63;61.35;100993.93;110892;1211;95284;-63
2023/08/16 10:53:05;;;;;;;9.50;4.90;;;;;;;28.69;60.71;100999.16;110444;1211;137871;-63
2023/08/16 10:55:30;;;;;;;9.40;5.30;;;;;;;28.69;60.37;101001.49;110818;1211;95091;-61
2023/08/16 10:57:55;;;;;;;7.10;4.50;;;;;;;28.72;60.10;101001.73;110562;1209;137037;-62
2023/08/16 11:00:35;;;;;;;5.90;4.70;;;;;;;28.74;59.78;101005.02;110673;1211;96293;-62
2023/08/16 11:03:03;;;;;;;13.70;4.80;;;;;;;28.74;59.29;101007.35;110869;1211;100856;-62